Time;durP1;ratioP1;P1;durP2;ratioP2;P2;SDS_P1;SDS_P2;PMS_P1;PMS_P2;Temp;Humidity;BMP_temperature;BMP_pressure;BME280_temperature;BME280_humidity;BME280_pressure;Samples;Min_cycle;Max_cycle;Signal;HPM_P1;HPM_P2
2022/07/06 00:01:43;;;;;;;5.68;3.35;;;;;;;;;;5091354;28;20028;-72
2022/07/06 00:04:09;;;;;;;5.00;3.10;;;;;;;;;;5095553;28;20024;-72
2022/07/06 00:06:35;;;;;;;4.85;3.17;;;;;;;;;;5097821;28;20035;-72
2022/07/06 00:09:01;;;;;;;4.25;2.75;;;;;;;;;;5097057;28;20393;-72
2022/07/06 00:11:27;;;;;;;7.32;3.42;;;;;;;;;;5095069;28;20042;-71
2022/07/06 00:13:53;;;;;;;4.18;2.70;;;;;;;;;;5089858;28;20034;-71
2022/07/06 00:16:19;;;;;;;6.65;3.78;;;;;;;;;;5093414;28;20034;-72
2022/07/06 00:18:46;;;;;;;8.10;2.95;;;;;;;;;;5100989;28;20027;-72
2022/07/06 00:21:12;;;;;;;4.38;3.33;;;;;;;;;;5090163;28;20052;-72
2022/07/06 00:23:38;;;;;;;6.65;3.15;;;;;;;;;;5090553;28;20024;-73
2022/07/06 00:26:05;;;;;;;6.25;3.10;;;;;;;;;;5103192;28;20370;-73
2022/07/06 00:28:31;;;;;;;6.35;3.40;;;;;;;;;;5093156;28;20024;-73
2022/07/06 00:30:57;;;;;;;6.65;3.20;;;;;;;;;;5092176;28;20032;-72
2022/07/06 00:33:23;;;;;;;4.22;2.83;;;;;;;;;;5099650;28;20038;-72
2022/07/06 00:35:50;;;;;;;6.13;3.25;;;;;;;;;;5099404;28;20028;-71
2022/07/06 00:38:16;;;;;;;5.28;3.08;;;;;;;;;;5093055;28;20048;-72
2022/07/06 00:40:42;;;;;;;6.13;3.22;;;;;;;;;;5096766;28;20428;-71
2022/07/06 00:43:08;;;;;;;5.10;2.80;;;;;;;;;;5091337;28;20081;-72
2022/07/06 00:45:34;;;;;;;4.47;2.90;;;;;;;;;;5094690;28;20020;-71
2022/07/06 00:48:00;;;;;;;4.90;2.78;;;;;;;;;;5089579;28;20028;-73
2022/07/06 00:50:28;;;;;;;5.97;2.60;;;;;;;;;;5102989;28;20095;-71
2022/07/06 00:53:02;;;;;;;6.93;2.80;;;;;;;;;;5091962;28;20432;-72
2022/07/06 00:55:30;;;;;;;4.47;2.65;;;;;;;;;;5096035;28;20034;-72
2022/07/06 00:57:56;;;;;;;9.10;3.65;;;;;;;;;;5091131;28;20092;-72
2022/07/06 01:00:26;;;;;;;5.88;2.95;;;;;;;;;;5086636;28;20028;-72
2022/07/06 01:02:52;;;;;;;3.78;2.20;;;;;;;;;;5089759;28;20032;-71
2022/07/06 01:05:18;;;;;;;4.30;2.85;;;;;;;;;;5098631;28;20012;-72
2022/07/06 01:07:45;;;;;;;5.40;2.70;;;;;;;;;;5098887;28;20061;-72
2022/07/06 01:10:12;;;;;;;4.05;3.55;;;;;;;;;;5089357;28;20035;-72
2022/07/06 01:12:39;;;;;;;5.03;2.92;;;;;;;;;;5089211;28;20032;-72
2022/07/06 01:15:13;;;;;;;4.10;2.75;;;;;;;;;;5100241;28;20114;-71
2022/07/06 01:17:39;;;;;;;5.60;2.92;;;;;;;;;;5102278;28;20062;-71
2022/07/06 01:20:09;;;;;;;4.63;3.08;;;;;;;;;;5103869;28;20063;-71
2022/07/06 01:22:35;;;;;;;4.00;2.75;;;;;;;;;;5096018;28;20062;-71
2022/07/06 01:25:01;;;;;;;3.60;2.90;;;;;;;;;;5103792;28;20497;-71
2022/07/06 01:27:27;;;;;;;5.18;3.05;;;;;;;;;;5098151;28;20023;-71
2022/07/06 01:29:53;;;;;;;6.88;3.92;;;;;;;;;;5089500;28;20036;-71
2022/07/06 01:32:19;;;;;;;6.80;2.78;;;;;;;;;;5080999;28;20036;-73
2022/07/06 01:34:45;;;;;;;4.18;2.38;;;;;;;;;;5094109;28;20445;-71
2022/07/06 01:37:11;;;;;;;4.97;2.63;;;;;;;;;;5093111;28;20079;-72
2022/07/06 01:39:37;;;;;;;7.20;2.97;;;;;;;;;;5100402;28;20449;-71
2022/07/06 01:42:03;;;;;;;4.97;3.65;;;;;;;;;;5097414;28;20367;-71
2022/07/06 01:44:29;;;;;;;5.57;3.97;;;;;;;;;;5104495;28;20019;-72
2022/07/06 01:46:56;;;;;;;5.45;2.78;;;;;;;;;;5092326;28;20031;-72
2022/07/06 01:49:22;;;;;;;5.22;3.10;;;;;;;;;;5105692;28;20080;-71
2022/07/06 01:51:48;;;;;;;5.57;3.42;;;;;;;;;;5098545;28;20423;-71
2022/07/06 01:54:14;;;;;;;4.68;2.65;;;;;;;;;;5101317;28;20057;-71
2022/07/06 01:56:40;;;;;;;5.60;3.47;;;;;;;;;;5102419;28;20044;-72
2022/07/06 01:59:06;;;;;;;7.45;2.85;;;;;;;;;;5099795;28;20032;-72
2022/07/06 02:01:32;;;;;;;6.00;3.03;;;;;;;;;;5108247;28;20061;-72
2022/07/06 02:03:58;;;;;;;4.15;3.35;;;;;;;;;;5102158;28;20026;-73
2022/07/06 02:06:24;;;;;;;7.57;3.40;;;;;;;;;;5093904;28;20031;-72
2022/07/06 02:08:51;;;;;;;5.68;3.00;;;;;;;;;;5091214;28;20020;-70
2022/07/06 02:11:17;;;;;;;5.85;3.17;;;;;;;;;;5091290;28;20055;-70
2022/07/06 02:13:43;;;;;;;6.07;2.60;;;;;;;;;;5097162;28;20427;-71
2022/07/06 02:16:10;;;;;;;6.30;3.33;;;;;;;;;;5092942;28;20081;-71
2022/07/06 02:18:36;;;;;;;4.72;3.17;;;;;;;;;;5101514;28;20504;-71
2022/07/06 02:21:02;;;;;;;7.97;3.97;;;;;;;;;;5100293;28;20462;-71
2022/07/06 02:23:29;;;;;;;4.30;2.72;;;;;;;;;;5091215;28;20557;-72
2022/07/06 02:25:55;;;;;;;6.95;3.08;;;;;;;;;;5098945;28;20027;-72
2022/07/06 02:28:21;;;;;;;5.60;2.80;;;;;;;;;;5102605;28;20100;-72
2022/07/06 02:30:47;;;;;;;4.88;2.85;;;;;;;;;;5090388;28;20031;-72
2022/07/06 02:33:13;;;;;;;7.57;2.97;;;;;;;;;;5098848;28;20027;-71
2022/07/06 02:35:42;;;;;;;4.13;2.83;;;;;;;;;;5097111;28;20486;-71
2022/07/06 02:38:08;;;;;;;4.95;3.38;;;;;;;;;;5104049;28;20398;-72
2022/07/06 02:40:34;;;;;;;6.10;3.08;;;;;;;;;;5102386;28;20107;-72
2022/07/06 02:43:00;;;;;;;4.22;2.78;;;;;;;;;;5096435;28;20031;-71
2022/07/06 02:45:27;;;;;;;7.00;3.05;;;;;;;;;;5101760;28;20129;-72
2022/07/06 02:47:55;;;;;;;5.60;2.83;;;;;;;;;;5103650;28;20081;-72
2022/07/06 02:50:21;;;;;;;5.50;3.58;;;;;;;;;;5098529;28;20504;-72
2022/07/06 02:52:47;;;;;;;5.28;2.80;;;;;;;;;;5092470;28;20500;-71
2022/07/06 02:55:13;;;;;;;8.52;2.97;;;;;;;;;;5096856;28;20042;-72
2022/07/06 02:57:39;;;;;;;7.72;3.42;;;;;;;;;;5100644;28;20032;-72
2022/07/06 03:00:06;;;;;;;5.15;3.38;;;;;;;;;;5094448;28;20485;-72
2022/07/06 03:02:32;;;;;;;7.30;3.40;;;;;;;;;;5092951;28;20023;-72
2022/07/06 03:04:58;;;;;;;4.55;2.95;;;;;;;;;;5089280;28;20039;-71
2022/07/06 03:07:24;;;;;;;8.23;3.58;;;;;;;;;;5097463;28;20028;-71
2022/07/06 03:09:50;;;;;;;7.63;2.90;;;;;;;;;;5086610;28;20111;-70
2022/07/06 03:12:16;;;;;;;4.57;3.10;;;;;;;;;;5096684;28;20415;-72
2022/07/06 03:14:43;;;;;;;7.07;3.08;;;;;;;;;;5098857;28;20594;-72
2022/07/06 03:17:09;;;;;;;5.40;2.90;;;;;;;;;;5091888;28;20389;-72
2022/07/06 03:19:35;;;;;;;6.28;3.05;;;;;;;;;;5095617;28;20485;-71
2022/07/06 03:22:01;;;;;;;10.88;4.38;;;;;;;;;;5092589;28;20032;-73
2022/07/06 03:24:27;;;;;;;8.23;3.28;;;;;;;;;;5089548;28;20016;-73
2022/07/06 03:26:53;;;;;;;5.63;3.30;;;;;;;;;;5099404;28;20148;-72
2022/07/06 03:29:20;;;;;;;8.82;3.38;;;;;;;;;;5099593;28;20397;-72
2022/07/06 03:31:46;;;;;;;5.07;3.10;;;;;;;;;;5092201;28;20098;-72
2022/07/06 03:34:12;;;;;;;6.97;4.03;;;;;;;;;;5099528;28;20495;-74
2022/07/06 03:36:39;;;;;;;7.38;3.30;;;;;;;;;;5093470;28;20105;-72
2022/07/06 03:39:05;;;;;;;8.43;3.70;;;;;;;;;;5101401;28;20028;-74
2022/07/06 03:41:32;;;;;;;7.97;3.05;;;;;;;;;;5094823;28;20557;-73
2022/07/06 03:43:58;;;;;;;8.88;4.07;;;;;;;;;;5097736;28;20500;-74
2022/07/06 03:46:24;;;;;;;7.45;3.10;;;;;;;;;;5101332;28;20486;-72
2022/07/06 03:48:50;;;;;;;5.15;3.20;;;;;;;;;;5102535;28;20038;-74
2022/07/06 03:51:17;;;;;;;7.40;3.00;;;;;;;;;;5098879;28;20031;-73
2022/07/06 03:53:43;;;;;;;8.60;3.38;;;;;;;;;;5091867;28;20073;-73
2022/07/06 03:56:27;;;;;;;7.03;3.38;;;;;;;;;;5095090;28;20137;-74
2022/07/06 03:58:54;;;;;;;7.53;3.47;;;;;;;;;;5098834;28;20059;-73
2022/07/06 04:01:20;;;;;;;7.40;3.08;;;;;;;;;;5100476;28;20028;-75
2022/07/06 04:03:46;;;;;;;5.85;3.17;;;;;;;;;;5097816;28;20020;-73
2022/07/06 04:06:12;;;;;;;8.65;3.47;;;;;;;;;;5102646;28;20020;-74
2022/07/06 04:08:38;;;;;;;6.65;3.42;;;;;;;;;;5094656;28;20385;-74
2022/07/06 04:11:04;;;;;;;5.57;3.38;;;;;;;;;;5093238;28;20034;-74
2022/07/06 04:13:30;;;;;;;6.95;3.08;;;;;;;;;;5094047;28;20381;-72
2022/07/06 04:15:57;;;;;;;7.55;3.28;;;;;;;;;;5092077;28;20539;-74
2022/07/06 04:18:23;;;;;;;6.78;3.58;;;;;;;;;;5088202;28;20035;-73
2022/07/06 04:20:49;;;;;;;9.75;3.63;;;;;;;;;;5094047;28;20016;-74
2022/07/06 04:23:15;;;;;;;7.57;3.47;;;;;;;;;;5098443;28;20028;-74
2022/07/06 04:25:41;;;;;;;6.72;3.65;;;;;;;;;;5089737;28;20088;-74
2022/07/06 04:28:07;;;;;;;5.72;2.92;;;;;;;;;;5091831;28;20034;-74
2022/07/06 04:30:33;;;;;;;7.85;3.47;;;;;;;;;;5089711;28;20501;-73
2022/07/06 04:32:59;;;;;;;10.48;3.20;;;;;;;;;;5098422;28;20039;-73
2022/07/06 04:35:25;;;;;;;6.22;3.67;;;;;;;;;;5097284;28;20032;-73
2022/07/06 04:37:51;;;;;;;8.23;4.10;;;;;;;;;;5098800;28;20500;-73
2022/07/06 04:40:18;;;;;;;8.77;3.45;;;;;;;;;;5093010;28;20032;-73
2022/07/06 04:42:44;;;;;;;8.23;3.83;;;;;;;;;;5086843;28;20020;-74
2022/07/06 04:45:10;;;;;;;6.18;2.80;;;;;;;;;;5096541;28;20032;-74
2022/07/06 04:47:36;;;;;;;7.85;4.45;;;;;;;;;;5099900;28;21290;-74
2022/07/06 04:50:03;;;;;;;5.88;2.83;;;;;;;;;;5093116;28;20027;-74
2022/07/06 04:52:29;;;;;;;12.68;3.22;;;;;;;;;;5091353;28;20027;-73
2022/07/06 04:54:55;;;;;;;6.10;2.58;;;;;;;;;;5091553;28;20043;-74
2022/07/06 04:57:22;;;;;;;7.82;3.00;;;;;;;;;;5095209;28;20020;-74
2022/07/06 04:59:48;;;;;;;8.82;3.92;;;;;;;;;;5102725;28;20027;-74
2022/07/06 05:02:14;;;;;;;4.70;2.75;;;;;;;;;;5092544;28;20497;-74
2022/07/06 05:04:40;;;;;;;5.18;3.15;;;;;;;;;;5099089;28;20059;-73
2022/07/06 05:07:06;;;;;;;6.45;2.63;;;;;;;;;;5093714;28;20024;-73
2022/07/06 05:09:32;;;;;;;7.97;2.85;;;;;;;;;;5091258;28;20524;-74
2022/07/06 05:11:58;;;;;;;7.40;2.80;;;;;;;;;;5097599;28;20023;-74
2022/07/06 05:14:24;;;;;;;6.47;3.00;;;;;;;;;;5093509;28;20047;-75
2022/07/06 05:16:50;;;;;;;6.13;2.80;;;;;;;;;;5089401;28;20020;-72
2022/07/06 05:19:16;;;;;;;5.22;2.33;;;;;;;;;;5092819;28;20036;-73
2022/07/06 05:21:42;;;;;;;8.27;3.20;;;;;;;;;;5098199;28;20543;-74
2022/07/06 05:24:09;;;;;;;6.00;2.90;;;;;;;;;;5098470;28;20024;-74
2022/07/06 05:26:35;;;;;;;4.82;2.83;;;;;;;;;;5088723;28;20024;-73
2022/07/06 05:29:01;;;;;;;6.93;2.35;;;;;;;;;;5092970;28;20027;-74
2022/07/06 05:31:27;;;;;;;6.22;3.38;;;;;;;;;;5099654;28;20031;-73
2022/07/06 05:33:53;;;;;;;6.47;2.65;;;;;;;;;;5090819;28;20077;-74
2022/07/06 05:36:19;;;;;;;4.95;2.63;;;;;;;;;;5096543;28;20032;-73
2022/07/06 05:38:45;;;;;;;3.53;2.60;;;;;;;;;;5096805;28;20087;-74
2022/07/06 05:41:11;;;;;;;3.72;2.50;;;;;;;;;;5094781;28;20024;-74
2022/07/06 05:43:37;;;;;;;8.40;2.63;;;;;;;;;;5094617;28;20376;-73
2022/07/06 05:46:03;;;;;;;10.57;2.72;;;;;;;;;;5091171;28;20023;-74
2022/07/06 05:51:15;;;;;;;7.83;3.87;;;;;;;;;;5099597;28;20030;-74
2022/07/06 05:53:41;;;;;;;6.22;2.55;;;;;;;;;;5097704;28;20254;-74
2022/07/06 05:56:07;;;;;;;4.32;2.72;;;;;;;;;;5093700;28;20473;-74
2022/07/06 05:58:33;;;;;;;6.53;3.28;;;;;;;;;;5101012;28;20143;-73
2022/07/06 06:00:59;;;;;;;5.22;2.60;;;;;;;;;;5094235;28;20512;-74
2022/07/06 06:03:25;;;;;;;5.78;2.67;;;;;;;;;;5101548;28;20030;-73
2022/07/06 06:05:51;;;;;;;5.90;2.55;;;;;;;;;;5096602;28;20051;-74
2022/07/06 06:08:18;;;;;;;4.38;2.42;;;;;;;;;;5099780;28;20032;-74
2022/07/06 06:10:44;;;;;;;4.97;2.60;;;;;;;;;;5100297;28;20556;-74
2022/07/06 06:13:10;;;;;;;5.80;2.50;;;;;;;;;;5101976;28;20028;-73
2022/07/06 06:15:37;;;;;;;6.93;2.85;;;;;;;;;;5094343;28;20412;-74
2022/07/06 06:18:03;;;;;;;4.38;2.58;;;;;;;;;;5092990;28;20026;-75
2022/07/06 06:20:30;;;;;;;5.18;3.00;;;;;;;;;;5091094;28;20489;-73
2022/07/06 06:22:57;;;;;;;4.45;2.50;;;;;;;;;;5096481;28;20062;-73
2022/07/06 06:25:29;;;;;;;3.60;2.50;;;;;;;;;;5095694;28;20020;-74
2022/07/06 06:27:55;;;;;;;5.82;2.80;;;;;;;;;;5092943;28;20107;-73
2022/07/06 06:30:21;;;;;;;5.57;3.03;;;;;;;;;;5094186;28;20103;-73
2022/07/06 06:32:47;;;;;;;4.40;2.70;;;;;;;;;;5100158;28;20031;-74
2022/07/06 06:35:13;;;;;;;6.18;2.58;;;;;;;;;;5103584;28;20058;-71
2022/07/06 06:37:39;;;;;;;3.53;2.28;;;;;;;;;;5096168;28;20043;-73
2022/07/06 06:40:06;;;;;;;5.53;3.08;;;;;;;;;;5098173;28;20023;-74
2022/07/06 06:42:32;;;;;;;3.67;2.10;;;;;;;;;;5099447;28;20024;-74
2022/07/06 06:44:58;;;;;;;6.47;3.05;;;;;;;;;;5098237;28;20177;-71
2022/07/06 06:47:24;;;;;;;5.25;2.30;;;;;;;;;;5100788;28;20713;-73
2022/07/06 06:49:51;;;;;;;6.68;2.60;;;;;;;;;;5101553;28;20114;-73
2022/07/06 06:52:17;;;;;;;4.60;2.30;;;;;;;;;;5098356;28;20481;-73
2022/07/06 06:54:43;;;;;;;2.83;2.03;;;;;;;;;;5100497;28;20043;-73
2022/07/06 06:57:09;;;;;;;3.13;2.40;;;;;;;;;;5094592;28;20028;-75
2022/07/06 06:59:35;;;;;;;3.03;2.17;;;;;;;;;;5095612;28;20110;-73
2022/07/06 07:02:01;;;;;;;8.05;2.50;;;;;;;;;;5097798;28;20026;-74
2022/07/06 07:04:29;;;;;;;5.80;2.45;;;;;;;;;;5098146;28;20059;-73
2022/07/06 07:06:55;;;;;;;4.18;2.13;;;;;;;;;;5100573;28;20671;-74
2022/07/06 07:09:21;;;;;;;3.58;2.25;;;;;;;;;;5095925;28;20048;-74
2022/07/06 07:11:47;;;;;;;2.35;2.15;;;;;;;;;;5094512;28;20028;-74
2022/07/06 07:14:13;;;;;;;4.90;2.38;;;;;;;;;;5090708;28;20498;-73
2022/07/06 07:16:39;;;;;;;3.53;2.05;;;;;;;;;;5095038;28;20032;-71
2022/07/06 07:19:05;;;;;;;4.20;2.42;;;;;;;;;;5087940;28;20032;-73
2022/07/06 07:21:31;;;;;;;7.65;2.22;;;;;;;;;;5091541;28;20535;-74
2022/07/06 07:23:57;;;;;;;5.03;2.17;;;;;;;;;;5093592;28;20418;-74
2022/07/06 07:26:23;;;;;;;3.15;2.25;;;;;;;;;;5089828;28;20032;-72
2022/07/06 07:28:50;;;;;;;2.58;2.10;;;;;;;;;;5094211;28;20034;-72
2022/07/06 07:31:16;;;;;;;5.72;2.53;;;;;;;;;;5090882;28;20062;-72
2022/07/06 07:33:42;;;;;;;2.47;2.00;;;;;;;;;;5094628;28;20041;-72
2022/07/06 07:36:08;;;;;;;4.18;2.53;;;;;;;;;;5089347;28;20039;-72
2022/07/06 07:38:34;;;;;;;5.63;2.00;;;;;;;;;;5086082;28;20051;-71
2022/07/06 07:41:00;;;;;;;4.10;2.53;;;;;;;;;;5094020;28;20028;-72
2022/07/06 07:43:26;;;;;;;3.13;1.88;;;;;;;;;;5095507;28;20397;-72
2022/07/06 07:45:52;;;;;;;3.85;2.05;;;;;;;;;;5094350;28;20458;-72
2022/07/06 07:48:18;;;;;;;2.30;2.00;;;;;;;;;;5095842;28;21049;-71
2022/07/06 07:50:44;;;;;;;4.78;2.05;;;;;;;;;;5083713;28;20085;-72
2022/07/06 07:53:11;;;;;;;3.78;2.45;;;;;;;;;;5090461;28;20552;-74
2022/07/06 07:55:37;;;;;;;3.10;1.90;;;;;;;;;;5086824;28;20031;-73
2022/07/06 07:58:03;;;;;;;4.68;2.03;;;;;;;;;;5093096;28;20114;-73
2022/07/06 08:00:29;;;;;;;2.92;1.92;;;;;;;;;;5091029;28;20023;-72
2022/07/06 08:02:55;;;;;;;3.50;2.42;;;;;;;;;;5083478;28;20498;-72
2022/07/06 08:05:21;;;;;;;5.35;2.03;;;;;;;;;;5094518;28;20506;-73
2022/07/06 08:07:47;;;;;;;4.72;2.13;;;;;;;;;;5091326;28;20053;-73
2022/07/06 08:10:14;;;;;;;3.33;2.20;;;;;;;;;;5087789;28;20090;-73
2022/07/06 08:12:40;;;;;;;9.45;2.50;;;;;;;;;;5093760;28;20031;-72
2022/07/06 08:15:07;;;;;;;5.80;2.08;;;;;;;;;;5090955;28;20427;-74
2022/07/06 08:17:33;;;;;;;3.45;1.90;;;;;;;;;;5084822;28;20047;-72
2022/07/06 08:19:59;;;;;;;2.72;1.73;;;;;;;;;;5088164;28;20020;-73
2022/07/06 08:22:25;;;;;;;2.55;2.00;;;;;;;;;;5092198;28;20027;-72
2022/07/06 08:24:51;;;;;;;3.80;1.98;;;;;;;;;;5096666;27;20367;-73
2022/07/06 08:27:17;;;;;;;4.15;2.97;;;;;;;;;;5087544;28;20026;-73
2022/07/06 08:29:43;;;;;;;2.20;1.90;;;;;;;;;;5093888;28;20024;-73
2022/07/06 08:32:09;;;;;;;2.10;1.90;;;;;;;;;;5094232;28;20024;-73
2022/07/06 08:34:36;;;;;;;5.57;2.13;;;;;;;;;;5094967;28;20057;-73
2022/07/06 08:37:02;;;;;;;4.78;2.00;;;;;;;;;;5092342;28;20477;-73
2022/07/06 08:39:28;;;;;;;5.93;2.10;;;;;;;;;;5099384;28;20044;-73
2022/07/06 08:41:55;;;;;;;4.82;1.90;;;;;;;;;;5089717;28;20034;-74
2022/07/06 08:44:21;;;;;;;4.22;2.00;;;;;;;;;;5090321;28;20023;-73
2022/07/06 08:46:49;;;;;;;4.60;2.00;;;;;;;;;;5089203;28;20076;-72
2022/07/06 08:49:16;;;;;;;3.13;2.28;;;;;;;;;;5086519;28;20075;-72
2022/07/06 08:51:43;;;;;;;2.35;1.85;;;;;;;;;;5091743;28;20920;-74
2022/07/06 08:54:09;;;;;;;3.55;2.08;;;;;;;;;;5087165;28;20023;-73
2022/07/06 08:56:36;;;;;;;2.95;2.28;;;;;;;;;;5089899;28;20834;-73
2022/07/06 08:59:02;;;;;;;4.20;1.90;;;;;;;;;;5089326;28;20032;-72
2022/07/06 09:01:29;;;;;;;4.90;2.03;;;;;;;;;;5088419;28;20491;-72
2022/07/06 09:03:55;;;;;;;3.17;1.85;;;;;;;;;;5089526;28;20048;-72
2022/07/06 09:06:25;;;;;;;2.67;1.80;;;;;;;;;;5090261;28;20095;-72
2022/07/06 09:08:53;;;;;;;3.45;2.05;;;;;;;;;;5092171;28;20032;-73
2022/07/06 09:11:19;;;;;;;3.08;2.00;;;;;;;;;;5090163;28;20031;-74
2022/07/06 09:13:46;;;;;;;1.65;1.48;;;;;;;;;;5095014;28;20166;-73
2022/07/06 09:16:13;;;;;;;2.45;1.70;;;;;;;;;;5093901;28;20062;-73
2022/07/06 09:18:39;;;;;;;2.67;1.65;;;;;;;;;;5091824;28;20779;-73
2022/07/06 09:21:06;;;;;;;3.50;1.73;;;;;;;;;;5090092;28;20020;-74
2022/07/06 09:23:33;;;;;;;3.85;1.85;;;;;;;;;;5084045;28;20056;-73
2022/07/06 09:26:01;;;;;;;3.38;2.00;;;;;;;;;;5091408;28;20023;-73
2022/07/06 09:28:44;;;;;;;6.00;2.30;;;;;;;;;;5096554;28;20660;-72
2022/07/06 09:31:10;;;;;;;4.35;2.20;;;;;;;;;;5090331;28;20023;-73
2022/07/06 09:33:37;;;;;;;4.43;2.08;;;;;;;;;;5094024;28;20028;-73
2022/07/06 09:36:03;;;;;;;2.83;2.10;;;;;;;;;;5094838;28;20489;-72
2022/07/06 09:38:29;;;;;;;3.70;2.22;;;;;;;;;;5097187;28;20109;-71
2022/07/06 09:40:55;;;;;;;3.53;1.95;;;;;;;;;;5095221;28;20027;-74
2022/07/06 09:43:22;;;;;;;1.65;1.55;;;;;;;;;;5090039;28;20528;-72
2022/07/06 09:45:50;;;;;;;4.20;2.20;;;;;;;;;;5091414;28;20039;-73
2022/07/06 09:48:23;;;;;;;3.13;2.83;;;;;;;;;;5087439;28;20023;-73
2022/07/06 09:50:53;;;;;;;3.15;1.92;;;;;;;;;;5099144;28;20497;-73
2022/07/06 09:53:19;;;;;;;3.85;2.17;;;;;;;;;;5095465;28;20065;-72
2022/07/06 09:55:46;;;;;;;3.20;1.88;;;;;;;;;;5094174;28;20401;-72
2022/07/06 09:58:13;;;;;;;2.30;1.70;;;;;;;;;;5091833;28;20300;-73
2022/07/06 10:00:39;;;;;;;5.85;2.45;;;;;;;;;;5092406;28;20369;-73
2022/07/06 10:03:05;;;;;;;5.20;2.00;;;;;;;;;;5093895;28;20397;-73
2022/07/06 10:05:32;;;;;;;1.95;1.60;;;;;;;;;;5098648;28;20020;-73
2022/07/06 10:07:59;;;;;;;2.50;2.00;;;;;;;;;;5090160;28;20032;-73
2022/07/06 10:10:27;;;;;;;3.05;1.90;;;;;;;;;;5092209;28;20299;-72
2022/07/06 10:12:55;;;;;;;2.90;1.88;;;;;;;;;;5095969;28;20420;-72
2022/07/06 10:15:23;;;;;;;2.20;1.85;;;;;;;;;;5092993;28;20443;-73
2022/07/06 10:17:50;;;;;;;5.22;2.30;;;;;;;;;;5092327;28;20085;-74
2022/07/06 10:20:16;;;;;;;3.83;1.83;;;;;;;;;;5093687;28;20024;-74
2022/07/06 10:22:42;;;;;;;2.53;1.90;;;;;;;;;;5094148;28;20401;-73
2022/07/06 10:25:08;;;;;;;3.85;2.10;;;;;;;;;;5093246;28;20113;-72
2022/07/06 10:27:35;;;;;;;4.68;2.00;;;;;;;;;;5089085;28;20692;-71
2022/07/06 10:30:01;;;;;;;4.68;2.15;;;;;;;;;;5094231;28;20032;-72
2022/07/06 10:32:28;;;;;;;4.57;2.25;;;;;;;;;;5104071;27;20031;-74
2022/07/06 10:34:55;;;;;;;4.78;2.20;;;;;;;;;;5092466;28;20032;-73
2022/07/06 10:37:25;;;;;;;5.50;2.08;;;;;;;;;;5089486;28;20069;-73
2022/07/06 10:42:45;;;;;;;3.28;2.15;;;;;;;;;;5093462;28;20047;-73
2022/07/06 10:45:12;;;;;;;5.05;2.20;;;;;;;;;;5088817;28;20022;-74
2022/07/06 10:47:38;;;;;;;5.80;2.15;;;;;;;;;;5089263;28;20028;-73
2022/07/06 10:50:05;;;;;;;4.78;2.13;;;;;;;;;;5091130;28;20032;-73
2022/07/06 10:52:49;;;;;;;3.28;2.28;;;;;;;;;;5090229;28;20432;-73
2022/07/06 10:55:29;;;;;;;3.83;2.50;;;;;;;;;;5093200;28;20481;-73
2022/07/06 10:57:56;;;;;;;4.63;2.80;;;;;;;;;;5092256;28;20028;-73
2022/07/06 11:00:22;;;;;;;3.08;2.55;;;;;;;;;;5086030;28;20020;-74
2022/07/06 11:02:48;;;;;;;3.80;2.15;;;;;;;;;;5093025;28;20106;-73
2022/07/06 11:05:33;;;;;;;3.15;2.05;;;;;;;;;;5091679;28;20035;-74
2022/07/06 11:08:02;;;;;;;4.32;2.13;;;;;;;;;;5085987;28;20039;-72
2022/07/06 11:10:28;;;;;;;2.63;2.20;;;;;;;;;;5094662;28;20034;-72
2022/07/06 11:13:00;;;;;;;2.55;2.20;;;;;;;;;;5087761;28;20085;-72
2022/07/06 11:15:45;;;;;;;3.67;2.50;;;;;;;;;;5088962;28;20032;-73
2022/07/06 11:18:12;;;;;;;3.22;2.40;;;;;;;;;;5090658;28;20036;-72
2022/07/06 11:20:38;;;;;;;4.85;2.45;;;;;;;;;;5095838;28;20846;-73
2022/07/06 11:23:04;;;;;;;2.63;2.08;;;;;;;;;;5095821;28;20024;-72
2022/07/06 11:25:30;;;;;;;4.72;2.50;;;;;;;;;;5098732;28;20087;-73
2022/07/06 11:27:57;;;;;;;6.82;2.65;;;;;;;;;;5092186;28;20032;-72
2022/07/06 11:30:23;;;;;;;4.28;2.40;;;;;;;;;;5095451;28;20030;-71
2022/07/06 11:32:49;;;;;;;2.90;2.47;;;;;;;;;;5089479;28;20036;-71
2022/07/06 11:35:22;;;;;;;6.40;2.70;;;;;;;;;;5090019;28;20110;-71
2022/07/06 11:37:48;;;;;;;8.35;2.60;;;;;;;;;;5086468;28;20044;-71
2022/07/06 11:40:18;;;;;;;3.40;2.30;;;;;;;;;;5095521;28;20505;-72
2022/07/06 11:42:54;;;;;;;3.15;2.10;;;;;;;;;;5089170;28;20032;-71
2022/07/06 11:45:27;;;;;;;4.35;2.35;;;;;;;;;;5093026;28;20111;-71
2022/07/06 11:48:09;;;;;;;4.68;2.72;;;;;;;;;;5092943;28;20060;-72
2022/07/06 11:50:35;;;;;;;4.65;2.50;;;;;;;;;;5091180;28;20043;-72
2022/07/06 11:53:01;;;;;;;4.72;2.40;;;;;;;;;;5094193;28;20039;-71
2022/07/06 11:55:28;;;;;;;3.83;2.63;;;;;;;;;;5094672;28;20077;-72
2022/07/06 11:57:57;;;;;;;4.18;2.38;;;;;;;;;;5093403;28;20031;-71
2022/07/06 12:00:23;;;;;;;4.80;2.90;;;;;;;;;;5088375;28;20024;-72
2022/07/06 12:03:01;;;;;;;4.97;2.83;;;;;;;;;;5091289;28;20034;-71
2022/07/06 12:05:33;;;;;;;3.65;2.17;;;;;;;;;;5090861;28;20028;-72
2022/07/06 12:08:06;;;;;;;5.43;2.42;;;;;;;;;;5095826;28;20028;-71
2022/07/06 12:10:35;;;;;;;2.83;2.30;;;;;;;;;;5096898;28;20591;-73
2022/07/06 12:13:04;;;;;;;4.18;2.10;;;;;;;;;;5096038;28;20103;-74
2022/07/06 12:15:30;;;;;;;5.45;2.40;;;;;;;;;;5089748;28;20066;-71
2022/07/06 12:17:57;;;;;;;4.63;2.60;;;;;;;;;;5093069;28;20027;-71
2022/07/06 12:20:24;;;;;;;3.53;2.80;;;;;;;;;;5088648;28;20028;-72
2022/07/06 12:22:50;;;;;;;3.95;2.40;;;;;;;;;;5088936;28;20741;-72
2022/07/06 12:25:35;;;;;;;5.07;2.88;;;;;;;;;;5086732;28;20424;-71
2022/07/06 12:28:01;;;;;;;3.10;2.30;;;;;;;;;;5088532;28;20051;-72
2022/07/06 12:30:27;;;;;;;6.30;2.72;;;;;;;;;;5090538;28;20024;-72
2022/07/06 12:33:12;;;;;;;3.97;2.72;;;;;;;;;;5097781;28;20028;-71
2022/07/06 12:35:38;;;;;;;5.75;2.47;;;;;;;;;;5090941;28;20078;-71
2022/07/06 12:38:04;;;;;;;3.80;2.10;;;;;;;;;;5087504;28;20143;-72
2022/07/06 12:40:31;;;;;;;4.30;2.53;;;;;;;;;;5090110;28;20629;-71
2022/07/06 12:42:57;;;;;;;4.00;2.60;;;;;;;;;;5093476;28;20110;-72
2022/07/06 12:45:47;;;;;;;5.22;2.33;;;;;;;;;;5090115;28;20035;-72
2022/07/06 12:48:13;;;;;;;4.30;2.20;;;;;;;;;;5093931;28;20032;-72
2022/07/06 12:50:40;;;;;;;4.63;2.30;;;;;;;;;;5092117;28;20439;-72
2022/07/06 12:53:23;;;;;;;4.03;2.25;;;;;;;;;;5091753;28;20110;-72
2022/07/06 12:55:49;;;;;;;2.53;2.15;;;;;;;;;;5089455;28;20016;-71
2022/07/06 12:58:19;;;;;;;4.30;2.10;;;;;;;;;;5093189;28;20028;-70
2022/07/06 13:00:46;;;;;;;2.30;2.08;;;;;;;;;;5090343;28;20025;-72
2022/07/06 13:03:12;;;;;;;5.03;2.20;;;;;;;;;;5094901;28;20027;-73
2022/07/06 13:05:38;;;;;;;3.17;1.80;;;;;;;;;;5087540;28;20056;-72
2022/07/06 13:08:04;;;;;;;2.85;2.05;;;;;;;;;;5094163;28;20034;-73
2022/07/06 13:10:30;;;;;;;2.40;1.90;;;;;;;;;;5096034;28;20113;-73
2022/07/06 13:12:57;;;;;;;2.92;1.80;;;;;;;;;;5099288;28;20063;-72
2022/07/06 13:15:23;;;;;;;5.82;2.25;;;;;;;;;;5099388;28;20123;-74
2022/07/06 13:17:49;;;;;;;3.00;1.95;;;;;;;;;;5095341;28;20508;-72
2022/07/06 13:20:17;;;;;;;2.53;1.83;;;;;;;;;;5090657;28;20808;-73
2022/07/06 13:22:43;;;;;;;2.28;1.83;;;;;;;;;;5089779;28;20047;-73
2022/07/06 13:25:09;;;;;;;3.22;1.80;;;;;;;;;;5094085;28;20457;-73
2022/07/06 13:27:35;;;;;;;2.80;1.90;;;;;;;;;;5098396;28;20054;-72
2022/07/06 13:30:01;;;;;;;2.22;1.75;;;;;;;;;;5094894;28;20023;-73
2022/07/06 13:32:28;;;;;;;2.13;1.88;;;;;;;;;;5091645;28;20094;-73
2022/07/06 13:34:54;;;;;;;2.13;1.77;;;;;;;;;;5089878;28;20020;-73
2022/07/06 13:37:20;;;;;;;2.83;1.95;;;;;;;;;;5097453;28;20412;-73
2022/07/06 13:39:47;;;;;;;2.30;1.90;;;;;;;;;;5091605;28;20306;-72
2022/07/06 13:42:13;;;;;;;3.28;1.90;;;;;;;;;;5099753;28;20122;-72
2022/07/06 13:44:39;;;;;;;4.50;2.33;;;;;;;;;;5093163;28;20031;-73
2022/07/06 13:47:05;;;;;;;2.83;1.85;;;;;;;;;;5096490;28;20096;-73
2022/07/06 13:49:31;;;;;;;3.25;1.80;;;;;;;;;;5088622;28;20488;-73
2022/07/06 13:52:03;;;;;;;2.63;1.67;;;;;;;;;;5091896;28;20039;-73
2022/07/06 13:54:29;;;;;;;1.77;1.50;;;;;;;;;;5092462;28;20046;-72
2022/07/06 13:56:55;;;;;;;2.25;1.80;;;;;;;;;;5091786;28;20149;-72
2022/07/06 13:59:21;;;;;;;2.88;1.70;;;;;;;;;;5092528;28;20045;-72
2022/07/06 14:01:47;;;;;;;1.65;1.50;;;;;;;;;;5094845;28;20019;-72
2022/07/06 14:04:13;;;;;;;1.75;1.65;;;;;;;;;;5095451;28;20023;-72
2022/07/06 14:06:40;;;;;;;1.50;1.40;;;;;;;;;;5096866;28;20024;-73
2022/07/06 14:09:06;;;;;;;1.70;1.60;;;;;;;;;;5095570;28;21090;-73
2022/07/06 14:11:32;;;;;;;1.90;1.80;;;;;;;;;;5090823;28;20024;-72
2022/07/06 14:13:58;;;;;;;1.90;1.70;;;;;;;;;;5096114;28;20385;-74
2022/07/06 14:16:24;;;;;;;1.63;1.50;;;;;;;;;;5088231;28;20513;-73
2022/07/06 14:18:51;;;;;;;2.63;1.80;;;;;;;;;;5088018;28;20081;-73
2022/07/06 14:21:17;;;;;;;1.63;1.52;;;;;;;;;;5095370;28;20039;-73
2022/07/06 14:23:43;;;;;;;2.08;1.70;;;;;;;;;;5094311;28;20028;-73
2022/07/06 14:26:09;;;;;;;2.28;1.77;;;;;;;;;;5086997;28;20093;-73
2022/07/06 14:28:35;;;;;;;1.77;1.67;;;;;;;;;;5089803;28;20024;-73
2022/07/06 14:31:02;;;;;;;1.70;1.60;;;;;;;;;;5097488;28;20028;-74
2022/07/06 14:33:28;;;;;;;1.55;1.45;;;;;;;;;;5094966;28;20039;-73
2022/07/06 14:35:55;;;;;;;1.52;1.42;;;;;;;;;;5087317;28;20074;-73
2022/07/06 14:38:21;;;;;;;2.00;1.80;;;;;;;;;;5088762;28;20134;-73
2022/07/06 14:40:49;;;;;;;3.38;1.70;;;;;;;;;;5093735;28;20024;-72
2022/07/06 14:43:15;;;;;;;1.67;1.45;;;;;;;;;;5092343;28;20440;-73
2022/07/06 14:45:43;;;;;;;2.88;1.65;;;;;;;;;;5087979;28;20533;-73
2022/07/06 14:48:09;;;;;;;2.60;1.80;;;;;;;;;;5089450;28;20106;-72